Time;durP1;ratioP1;P1;durP2;ratioP2;P2;SDS_P1;SDS_P2;PMS_P1;PMS_P2;Temp;Humidity;BMP_temperature;BMP_pressure;BME280_temperature;BME280_humidity;BME280_pressure;Samples;Min_cycle;Max_cycle;Signal;HPM_P1;HPM_P2
2021/05/21 00:00:10;;;;;;;4.10;2.53;;;;;;;10.45;74.13;100376.47;5024439;28;20041;-85
2021/05/21 00:02:36;;;;;;;4.22;3.10;;;;;;;10.45;73.81;100374.72;4992094;28;20048;-83
2021/05/21 00:05:04;;;;;;;3.25;2.97;;;;;;;10.45;73.25;100372.09;4995357;28;20102;-89
2021/05/21 00:07:30;;;;;;;4.88;2.58;;;;;;;10.47;73.66;100362.47;4977341;28;20141;-90
2021/05/21 00:09:59;;;;;;;3.63;3.03;;;;;;;10.51;72.27;100361.53;4979886;28;20061;-90
2021/05/21 00:12:25;;;;;;;2.25;2.15;;;;;;;10.54;72.19;100356.25;4980338;28;20488;-87
2021/05/21 00:14:51;;;;;;;4.28;2.90;;;;;;;10.59;71.53;100351.81;4973892;28;20061;-85
2021/05/21 00:17:17;;;;;;;2.95;1.98;;;;;;;10.67;71.10;100346.50;5013049;28;20096;-85
2021/05/21 00:19:47;;;;;;;2.80;2.50;;;;;;;10.81;70.66;100348.91;5013041;28;20103;-86
2021/05/21 00:22:13;;;;;;;2.78;2.50;;;;;;;10.90;70.31;100342.69;5021336;28;20135;-89
2021/05/21 00:24:39;;;;;;;2.58;2.38;;;;;;;10.99;69.97;100339.03;5029124;28;20097;-84
2021/05/21 00:27:05;;;;;;;2.47;2.38;;;;;;;11.08;69.01;100325.78;5010412;28;20136;-83
2021/05/21 00:29:32;;;;;;;1.30;1.20;;;;;;;11.15;67.56;100326.56;5018445;28;20141;-89
2021/05/21 00:31:58;;;;;;;1.77;1.67;;;;;;;11.21;67.03;100326.44;5017974;28;20045;-84
2021/05/21 00:34:24;;;;;;;1.95;1.70;;;;;;;11.25;66.81;100312.41;5037244;28;20052;-89
2021/05/21 00:36:52;;;;;;;1.80;1.70;;;;;;;11.28;66.52;100311.47;5024113;28;20054;-86
2021/05/21 00:39:20;;;;;;;2.13;1.50;;;;;;;11.31;66.07;100309.69;5037269;28;20049;-84
2021/05/21 00:41:50;;;;;;;1.58;1.48;;;;;;;11.36;66.38;100307.84;5024619;28;20060;-84
2021/05/21 00:44:17;;;;;;;1.67;1.38;;;;;;;11.40;65.95;100300.81;5035906;28;20045;-85
2021/05/21 00:46:43;;;;;;;1.45;1.35;;;;;;;11.44;65.84;100299.84;5034500;28;20074;-84
2021/05/21 00:49:09;;;;;;;1.45;1.35;;;;;;;11.46;66.27;100298.06;5039852;28;20518;-83
2021/05/21 00:51:35;;;;;;;4.35;1.15;;;;;;;11.48;66.08;100275.31;5035601;28;20044;-85
2021/05/21 00:54:02;;;;;;;1.58;1.48;;;;;;;11.50;65.79;100276.16;5037878;28;20136;-87
2021/05/21 00:56:32;;;;;;;1.00;1.00;;;;;;;11.52;66.13;100263.88;5053959;28;20877;-85
2021/05/21 00:58:59;;;;;;;1.85;1.13;;;;;;;11.52;66.12;100263.88;5040106;28;20045;-84
2021/05/21 01:01:31;;;;;;;2.72;1.60;;;;;;;11.52;66.18;100261.25;5041598;28;20112;-83
2021/05/21 01:03:58;;;;;;;2.08;1.40;;;;;;;11.52;66.39;100258.63;5048346;28;20123;-88
2021/05/21 01:06:24;;;;;;;4.20;1.60;;;;;;;11.52;66.59;100256.00;5024641;28;20041;-84
2021/05/21 01:08:57;;;;;;;0.88;0.85;;;;;;;11.54;66.47;100253.38;5019344;28;20052;-89
2021/05/21 01:11:24;;;;;;;1.42;1.33;;;;;;;11.54;66.46;100243.75;5042473;28;20049;-84
2021/05/21 01:13:52;;;;;;;2.75;1.10;;;;;;;11.56;65.72;100236.72;5020282;28;20048;-86
2021/05/21 01:16:19;;;;;;;2.90;1.08;;;;;;;11.55;65.50;100237.59;5039320;28;20048;-88
2021/05/21 01:18:51;;;;;;;0.98;0.98;;;;;;;11.57;65.46;100229.72;5037162;28;20056;-83
2021/05/21 01:21:18;;;;;;;1.65;1.55;;;;;;;11.58;65.63;100220.97;5045803;28;20037;-83
2021/05/21 01:23:45;;;;;;;1.17;0.98;;;;;;;11.58;65.17;100213.94;5038529;28;20082;-89
2021/05/21 01:26:15;;;;;;;1.20;0.75;;;;;;;11.61;65.09;100218.25;5034379;28;20052;-84
2021/05/21 01:28:42;;;;;;;1.08;0.75;;;;;;;11.62;64.82;100200.78;5043690;28;20046;-84
2021/05/21 01:31:10;;;;;;;1.30;0.70;;;;;;;11.63;64.45;100192.91;5043032;28;20139;-90
2021/05/21 01:33:42;;;;;;;2.47;0.70;;;;;;;11.67;64.23;100184.06;5035947;28;20665;-86
2021/05/21 01:36:09;;;;;;;0.50;0.50;;;;;;;11.70;63.64;100185.75;5038585;28;20056;-87
2021/05/21 01:38:37;;;;;;;0.47;0.47;;;;;;;11.72;63.99;100179.59;5034652;28;20056;-83
2021/05/21 01:41:06;;;;;;;0.95;0.95;;;;;;;11.75;63.77;100181.28;5023432;28;20448;-85
2021/05/21 01:43:32;;;;;;;0.80;0.80;;;;;;;11.77;63.55;100182.09;5038329;28;20059;-88
2021/05/21 01:45:59;;;;;;;1.25;0.73;;;;;;;11.81;63.31;100175.03;5036413;28;20526;-88
2021/05/21 01:48:27;;;;;;;0.80;0.80;;;;;;;11.85;63.27;100164.44;5039908;28;20045;-83
2021/05/21 01:51:03;;;;;;;0.73;0.73;;;;;;;11.86;63.16;100158.31;5021772;28;20032;-84
2021/05/21 01:53:30;;;;;;;1.95;0.80;;;;;;;11.88;63.12;100156.50;5027728;28;20051;-87
2021/05/21 01:56:03;;;;;;;1.02;0.80;;;;;;;11.87;62.77;100148.69;5023393;28;20049;-89
2021/05/21 01:58:32;;;;;;;1.47;0.70;;;;;;;11.86;62.76;100145.19;5039723;28;20076;-89
2021/05/21 02:01:01;;;;;;;0.77;0.77;;;;;;;11.88;62.71;100142.53;5033035;28;20510;-85
2021/05/21 02:03:31;;;;;;;1.25;0.98;;;;;;;11.86;62.67;100132.09;5029340;28;20034;-88
2021/05/21 02:05:58;;;;;;;1.15;0.73;;;;;;;11.86;62.43;100133.84;5021715;28;20652;-85
2021/05/21 02:08:27;;;;;;;1.45;0.77;;;;;;;11.84;62.43;100131.25;5015092;28;20557;-85
2021/05/21 02:10:54;;;;;;;1.77;0.90;;;;;;;11.83;62.85;100124.28;5016120;28;20049;-84
2021/05/21 02:13:22;;;;;;;1.20;1.10;;;;;;;11.83;62.80;100131.28;5019081;28;20484;-86
2021/05/21 02:15:50;;;;;;;1.02;0.85;;;;;;;11.82;63.14;100125.16;4981171;28;20119;-84
2021/05/21 02:18:18;;;;;;;0.75;0.75;;;;;;;11.81;62.92;100114.72;5003125;28;20049;-84
2021/05/21 02:20:48;;;;;;;1.27;0.90;;;;;;;11.77;63.03;100111.28;5021289;28;20050;-83
2021/05/21 02:23:14;;;;;;;1.35;1.02;;;;;;;11.74;62.84;100103.50;5017645;28;20138;-86
2021/05/21 02:25:42;;;;;;;0.57;0.50;;;;;;;11.73;63.17;100096.53;5017937;28;20049;-84
2021/05/21 02:28:10;;;;;;;6.43;0.95;;;;;;;11.72;62.86;100086.94;4993838;28;20510;-87
2021/05/21 02:30:39;;;;;;;1.27;0.70;;;;;;;11.73;63.09;100084.31;5005078;28;20071;-85
2021/05/21 02:33:05;;;;;;;1.02;0.70;;;;;;;11.74;63.22;100077.28;5035710;28;20087;-87
2021/05/21 02:35:31;;;;;;;0.85;0.68;;;;;;;11.76;63.12;100078.13;5053460;28;20403;-85
2021/05/21 02:37:58;;;;;;;1.77;0.80;;;;;;;11.78;62.77;100078.09;5040618;28;20362;-86
2021/05/21 02:40:25;;;;;;;1.25;1.15;;;;;;;11.80;63.21;100071.03;5033966;28;20086;-84
2021/05/21 02:42:52;;;;;;;0.63;0.50;;;;;;;11.81;63.05;100068.38;5039497;28;20718;-86
2021/05/21 02:45:19;;;;;;;1.30;0.70;;;;;;;11.80;62.69;100058.78;5017544;28;20049;-88
2021/05/21 02:47:46;;;;;;;1.70;0.43;;;;;;;11.81;62.78;100050.03;5020343;28;20372;-85
2021/05/21 02:50:12;;;;;;;1.73;0.82;;;;;;;11.83;62.79;100057.84;5024742;28;20072;-87
2021/05/21 02:52:39;;;;;;;2.80;0.70;;;;;;;11.84;62.74;100049.09;5035737;28;20054;-83
2021/05/21 02:55:07;;;;;;;1.30;0.60;;;;;;;11.85;62.77;100045.56;5034776;28;20049;-89
2021/05/21 02:57:34;;;;;;;1.85;0.90;;;;;;;11.86;62.93;100044.66;5025382;28;20673;-86
2021/05/21 03:00:01;;;;;;;1.85;0.82;;;;;;;11.86;62.60;100035.06;5031181;28;20056;-89
2021/05/21 03:02:27;;;;;;;1.85;0.77;;;;;;;11.86;62.80;100035.06;5048292;28;20510;-88
2021/05/21 03:04:57;;;;;;;0.75;0.60;;;;;;;11.85;62.66;100027.19;5014819;28;20127;-84
2021/05/21 03:07:26;;;;;;;0.63;0.63;;;;;;;11.82;62.71;100025.50;5036778;28;20052;-83
2021/05/21 03:09:52;;;;;;;0.90;0.80;;;;;;;11.79;63.15;100027.38;5015866;28;20063;-84
2021/05/21 03:12:18;;;;;;;0.88;0.88;;;;;;;11.77;63.13;100022.13;5035837;28;20064;-84
2021/05/21 03:14:44;;;;;;;1.27;0.82;;;;;;;11.73;62.78;100017.88;5043962;28;20505;-85
2021/05/21 03:17:12;;;;;;;1.35;1.00;;;;;;;11.71;63.33;100009.19;5015564;28;20068;-84
2021/05/21 03:19:39;;;;;;;0.55;0.55;;;;;;;11.68;63.40;100004.88;5017014;28;20096;-85
2021/05/21 03:22:08;;;;;;;0.95;0.80;;;;;;;11.67;63.07;100004.94;5032738;28;20147;-84
2021/05/21 03:24:38;;;;;;;0.60;0.60;;;;;;;11.66;63.43;99996.19;5051532;28;20041;-86
2021/05/21 03:27:05;;;;;;;2.80;0.70;;;;;;;11.66;63.10;99988.31;5026478;28;20067;-85
2021/05/21 03:29:33;;;;;;;1.95;1.10;;;;;;;11.66;63.00;99983.06;5007137;28;20060;-89
2021/05/21 03:32:01;;;;;;;0.65;0.65;;;;;;;11.66;63.69;99983.06;5015589;28;20059;-85
2021/05/21 03:34:31;;;;;;;2.25;1.10;;;;;;;11.67;63.57;99974.31;5013421;28;20051;-87
2021/05/21 03:36:58;;;;;;;1.27;1.17;;;;;;;11.67;63.48;99976.09;5019511;28;20043;-87
2021/05/21 03:39:24;;;;;;;1.95;0.95;;;;;;;11.64;63.33;99977.03;5025540;28;20057;-90
2021/05/21 03:41:50;;;;;;;1.30;1.05;;;;;;;11.64;63.37;99971.78;5019018;28;20471;-84
2021/05/21 03:44:17;;;;;;;0.98;0.95;;;;;;;11.65;63.77;99973.47;5031751;28;20048;-85
2021/05/21 03:46:45;;;;;;;0.88;0.88;;;;;;;11.66;63.46;99967.34;5015949;28;20136;-85
2021/05/21 03:49:12;;;;;;;2.83;1.25;;;;;;;11.65;63.57;99959.53;5012468;28;20053;-85
2021/05/21 03:51:39;;;;;;;0.95;0.50;;;;;;;11.67;63.45;99966.44;5023161;28;20072;-86
2021/05/21 03:54:11;;;;;;;1.45;1.35;;;;;;;11.68;63.43;99970.81;5012708;28;20045;-84
2021/05/21 03:56:38;;;;;;;0.50;0.50;;;;;;;11.72;63.41;99963.69;5007806;28;20137;-89
2021/05/21 03:59:05;;;;;;;1.38;0.65;;;;;;;11.75;63.06;99963.66;4995382;28;20052;-84
2021/05/21 04:01:32;;;;;;;2.42;0.85;;;;;;;11.78;62.89;99960.09;5029943;28;20045;-87
2021/05/21 04:04:01;;;;;;;0.60;0.60;;;;;;;11.81;62.86;99955.63;4998608;28;20264;-85
2021/05/21 04:06:27;;;;;;;2.85;0.73;;;;;;;11.85;62.86;99954.66;5005521;28;20098;-86
2021/05/21 04:08:56;;;;;;;0.70;0.70;;;;;;;11.91;62.73;99948.38;5015768;28;20041;-83
2021/05/21 04:11:22;;;;;;;0.80;0.80;;;;;;;11.92;62.89;99937.84;5020148;28;20063;-87
2021/05/21 04:13:50;;;;;;;0.80;0.80;;;;;;;11.98;62.50;99933.38;5028971;28;21182;-88
2021/05/21 04:16:16;;;;;;;0.60;0.60;;;;;;;12.02;62.94;99946.38;5016991;28;20049;-85
2021/05/21 04:18:47;;;;;;;4.32;1.08;;;;;;;12.02;62.37;99941.13;5014718;28;20128;-89
2021/05/21 04:21:15;;;;;;;0.73;0.70;;;;;;;12.05;62.59;99935.78;5032720;28;20093;-87
2021/05/21 04:23:47;;;;;;;2.15;1.08;;;;;;;12.06;62.32;99929.66;5018175;28;20760;-84
2021/05/21 04:26:16;;;;;;;2.17;0.77;;;;;;;12.07;62.53;99923.50;5008449;28;20045;-87
2021/05/21 04:28:47;;;;;;;1.05;0.70;;;;;;;12.12;62.63;99917.28;5002478;28;20508;-86
2021/05/21 04:31:18;;;;;;;2.72;0.85;;;;;;;12.17;62.19;99912.75;5018303;28;20045;-84
2021/05/21 04:33:47;;;;;;;0.95;0.70;;;;;;;12.21;62.21;99917.84;5041297;28;20061;-88
2021/05/21 04:36:16;;;;;;;0.70;0.70;;;;;;;12.26;62.06;99909.03;5039794;28;20045;-83
2021/05/21 04:38:42;;;;;;;0.98;0.98;;;;;;;12.33;61.80;99907.94;5015384;28;20065;-85
2021/05/21 04:41:10;;;;;;;2.20;1.48;;;;;;;12.37;61.94;99902.56;4999908;28;20053;-87
2021/05/21 04:43:36;;;;;;;3.20;0.75;;;;;;;12.41;61.56;99898.94;5005780;28;20050;-85
2021/05/21 04:46:06;;;;;;;1.55;0.60;;;;;;;12.49;61.86;99903.09;4997689;28;20920;-84
2021/05/21 04:48:34;;;;;;;1.55;0.90;;;;;;;12.53;61.42;99905.59;5037525;28;20063;-84
2021/05/21 04:51:03;;;;;;;0.82;0.80;;;;;;;12.57;61.40;99901.13;5010666;28;20053;-87
2021/05/21 04:53:29;;;;;;;1.40;0.77;;;;;;;12.62;61.32;99896.59;5019137;28;20056;-86
2021/05/21 04:55:55;;;;;;;1.08;0.70;;;;;;;12.67;61.19;99893.81;5022044;28;20050;-85
2021/05/21 04:58:24;;;;;;;3.28;1.02;;;;;;;12.70;60.97;99897.22;5015642;28;20209;-84
2021/05/21 05:00:51;;;;;;;0.77;0.77;;;;;;;12.75;61.08;99889.22;5045920;28;20104;-86
2021/05/21 05:03:17;;;;;;;1.88;1.08;;;;;;;12.81;60.89;99889.00;5031262;28;20049;-86
2021/05/21 05:05:45;;;;;;;2.10;0.73;;;;;;;12.86;60.42;99884.47;5033781;28;20103;-84
2021/05/21 05:08:15;;;;;;;0.75;0.70;;;;;;;12.93;60.35;99886.94;5018503;28;20044;-84
2021/05/21 05:10:46;;;;;;;1.45;1.35;;;;;;;12.98;60.48;99885.03;5001537;28;20045;-82
2021/05/21 05:13:13;;;;;;;1.55;1.10;;;;;;;13.02;60.22;99882.25;5011018;28;20049;-89
2021/05/21 05:15:43;;;;;;;2.47;0.68;;;;;;;13.08;60.27;99882.03;5017108;28;20044;-87
2021/05/21 05:18:11;;;;;;;2.05;1.00;;;;;;;13.12;59.54;99881.97;5024903;28;20494;-85
2021/05/21 05:20:38;;;;;;;0.57;0.57;;;;;;;13.16;59.74;99873.06;5024781;28;20451;-85
2021/05/21 05:23:12;;;;;;;0.80;0.80;;;;;;;13.22;59.44;99868.47;5023194;28;20123;-83
2021/05/21 05:25:45;;;;;;;2.05;0.73;;;;;;;13.27;59.35;99867.47;5022219;28;20052;-89
2021/05/21 05:28:12;;;;;;;2.53;0.65;;;;;;;13.28;59.43;99866.56;5039895;28;20147;-86
2021/05/21 05:30:41;;;;;;;1.17;0.80;;;;;;;13.32;59.66;99863.75;5041865;28;20044;-86
2021/05/21 05:33:07;;;;;;;0.82;0.77;;;;;;;13.39;59.33;99867.09;5014138;28;20075;-83
2021/05/21 05:35:34;;;;;;;2.05;0.73;;;;;;;13.49;58.43;99851.84;4998691;28;20050;-84
2021/05/21 05:38:03;;;;;;;1.27;0.75;;;;;;;13.47;58.20;99851.91;5018174;28;20492;-84
2021/05/21 05:40:31;;;;;;;1.13;0.80;;;;;;;13.45;58.44;99853.72;5013526;28;20060;-85
2021/05/21 05:42:57;;;;;;;0.50;0.50;;;;;;;13.48;58.20;99844.88;5002726;28;20041;-83
2021/05/21 05:45:26;;;;;;;0.68;0.68;;;;;;;13.54;57.92;99845.53;5009816;28;20046;-86
2021/05/21 05:47:54;;;;;;;2.40;0.77;;;;;;;13.70;57.83;99845.00;5001754;28;20140;-86
2021/05/21 05:50:21;;;;;;;1.52;0.70;;;;;;;13.86;57.20;99842.72;5020424;28;20057;-83
2021/05/21 05:52:48;;;;;;;1.08;0.98;;;;;;;14.02;57.11;99851.75;4985231;28;20053;-86
2021/05/21 05:55:14;;;;;;;4.65;0.75;;;;;;;14.12;56.37;99848.78;5017406;28;20061;-88
2021/05/21 05:57:40;;;;;;;1.05;1.05;;;;;;;14.16;56.40;99846.00;5017222;28;20148;-85
2021/05/21 06:00:08;;;;;;;1.70;0.70;;;;;;;14.20;56.45;99852.00;5017117;28;20049;-88
2021/05/21 06:02:37;;;;;;;3.20;1.02;;;;;;;14.23;56.38;99839.56;5016935;28;22573;-83
2021/05/21 06:05:06;;;;;;;1.13;0.90;;;;;;;14.33;56.32;99844.53;5000458;28;20066;-83
2021/05/21 06:07:33;;;;;;;1.13;0.98;;;;;;;14.34;55.50;99833.03;5017691;28;20045;-88
2021/05/21 06:09:59;;;;;;;1.20;0.57;;;;;;;14.35;55.70;99829.50;5019165;28;20061;-84
2021/05/21 06:12:26;;;;;;;0.68;0.52;;;;;;;14.35;55.41;99834.78;5018819;28;20085;-88
2021/05/21 06:14:57;;;;;;;0.73;0.40;;;;;;;14.29;55.31;99835.88;5017507;28;20045;-87
2021/05/21 06:17:24;;;;;;;2.45;0.75;;;;;;;14.31;55.34;99841.06;5012334;28;20041;-85
2021/05/21 06:19:54;;;;;;;1.08;0.70;;;;;;;14.29;55.60;99842.88;5019759;28;20053;-84
2021/05/21 06:22:24;;;;;;;2.72;0.65;;;;;;;14.32;55.64;99827.00;5018536;28;20159;-84
2021/05/21 06:24:52;;;;;;;4.35;0.90;;;;;;;14.22;54.60;99829.09;5015886;28;20098;-82
2021/05/21 06:27:26;;;;;;;0.65;0.50;;;;;;;14.29;55.17;99822.72;5017749;28;20049;-84
2021/05/21 06:29:52;;;;;;;1.00;0.43;;;;;;;14.37;55.01;99818.00;5015554;28;20041;-87
2021/05/21 06:32:18;;;;;;;1.95;0.73;;;;;;;14.43;54.78;99824.81;5015967;28;20041;-84
2021/05/21 06:34:46;;;;;;;0.70;0.60;;;;;;;14.44;54.83;99813.34;5052768;28;20563;-86
2021/05/21 06:37:17;;;;;;;0.98;0.68;;;;;;;14.40;54.37;99817.03;5041632;28;20139;-83
2021/05/21 06:39:47;;;;;;;0.60;0.50;;;;;;;14.37;54.68;99810.09;5043829;28;20189;-84
2021/05/21 06:42:18;;;;;;;5.68;0.68;;;;;;;14.28;54.76;99807.81;5049251;28;20048;-83
2021/05/21 06:44:57;;;;;;;;;;;;;;;;;;;;;
2021/05/21 06:47:36;;;;;;;0.82;0.60;;;;;;;13.89;55.29;99795.22;5019608;28;20048;-83
2021/05/21 06:50:05;;;;;;;4.63;0.80;;;;;;;13.76;55.93;99797.44;5056464;28;20048;-83
2021/05/21 06:52:34;;;;;;;2.30;0.68;;;;;;;13.71;56.26;99796.75;5038053;28;20138;-84
2021/05/21 06:55:05;;;;;;;0.63;0.50;;;;;;;13.66;56.25;99785.53;5007702;28;20071;-85
2021/05/21 06:57:35;;;;;;;3.25;0.63;;;;;;;13.68;56.29;99788.97;5039182;28;20522;-89
2021/05/21 07:00:08;;;;;;;3.13;1.00;;;;;;;13.72;56.39;99778.28;5043761;28;20068;-88
2021/05/21 07:02:37;;;;;;;2.47;0.70;;;;;;;13.82;56.21;99783.19;5040545;28;20052;-87
2021/05/21 07:05:08;;;;;;;1.30;0.60;;;;;;;13.97;55.57;99776.53;5033287;28;20052;-87
2021/05/21 07:07:35;;;;;;;5.05;0.77;;;;;;;14.25;54.77;99768.47;5024997;28;20063;-84
2021/05/21 07:10:16;;;;;;;2.33;0.70;;;;;;;14.70;53.68;99767.59;5035493;28;20078;-85
2021/05/21 07:12:47;;;;;;;1.55;0.45;;;;;;;15.27;51.93;99774.94;5035119;28;20044;-89
2021/05/21 07:15:15;;;;;;;0.98;0.60;;;;;;;15.69;49.75;99763.41;5020509;28;20052;-89
2021/05/21 07:17:45;;;;;;;2.35;0.65;;;;;;;15.96;49.28;99760.50;5046987;28;20080;-88
2021/05/21 07:20:15;;;;;;;0.73;0.43;;;;;;;16.15;47.91;99755.25;5040230;28;20094;-86
2021/05/21 07:22:45;;;;;;;2.70;0.50;;;;;;;16.44;48.42;99757.44;5033071;28;20060;-88
2021/05/21 07:25:15;;;;;;;4.63;0.60;;;;;;;16.48;47.09;99753.72;5023307;28;20048;-83
2021/05/21 07:27:41;;;;;;;0.93;0.65;;;;;;;16.36;47.25;99753.38;5039299;28;20040;-83
2021/05/21 07:30:12;;;;;;;4.68;0.57;;;;;;;16.52;47.36;99744.72;5017253;28;20052;-85
2021/05/21 07:32:38;;;;;;;3.92;0.75;;;;;;;16.76;47.07;99755.03;5019906;28;20056;-83
2021/05/21 07:35:06;;;;;;;0.90;0.47;;;;;;;16.74;46.33;99747.19;5051512;28;20060;-85
2021/05/21 07:37:36;;;;;;;1.67;0.50;;;;;;;16.81;46.20;99747.72;5050406;28;20167;-86
2021/05/21 07:40:08;;;;;;;5.53;0.70;;;;;;;16.82;46.23;99745.00;5031245;28;20102;-88
2021/05/21 07:42:37;;;;;;;7.30;1.40;;;;;;;16.78;46.07;99745.22;5033972;28;20144;-83
2021/05/21 07:45:06;;;;;;;3.00;0.80;;;;;;;16.82;46.12;99746.81;5033006;28;20049;-87
2021/05/21 07:47:35;;;;;;;2.88;0.73;;;;;;;16.91;46.41;99738.44;5016606;28;20530;-85
2021/05/21 07:50:02;;;;;;;2.63;0.50;;;;;;;17.35;45.45;99737.97;5035543;28;20048;-84
2021/05/21 07:52:31;;;;;;;0.63;0.28;;;;;;;17.45;44.49;99734.84;5026354;28;20052;-83
2021/05/21 07:54:59;;;;;;;2.05;0.68;;;;;;;17.23;44.03;99711.28;5020123;28;20398;-83
2021/05/21 07:57:28;;;;;;;2.92;0.90;;;;;;;16.92;45.42;99734.00;5029187;28;20040;-83
2021/05/21 07:59:55;;;;;;;1.15;0.30;;;;;;;16.52;45.73;99727.06;5023541;28;20113;-84
2021/05/21 08:02:26;;;;;;;1.48;0.52;;;;;;;16.86;44.96;99717.47;5029708;28;20127;-82
2021/05/21 08:04:52;;;;;;;1.13;0.45;;;;;;;17.29;44.69;99726.84;5049776;28;20045;-83
2021/05/21 08:07:29;;;;;;;1.95;0.60;;;;;;;18.22;43.60;99714.00;5032459;28;20114;-83
2021/05/21 08:10:01;;;;;;;2.45;0.43;;;;;;;19.23;41.19;99707.31;5063513;28;20045;-85
2021/05/21 08:12:30;;;;;;;2.10;0.60;;;;;;;19.73;40.43;99709.59;5049168;28;20048;-84
2021/05/21 08:15:12;;;;;;;2.15;0.60;;;;;;;20.36;38.62;99705.63;5032828;28;20041;-82
2021/05/21 08:17:45;;;;;;;3.40;0.73;;;;;;;20.49;39.24;99703.88;5005792;28;20055;-84
2021/05/21 08:20:14;;;;;;;2.95;0.73;;;;;;;20.15;39.44;99700.75;5050165;28;20048;-82
2021/05/21 08:22:47;;;;;;;1.95;0.68;;;;;;;19.69;39.92;99695.66;5061531;28;20082;-86
2021/05/21 08:25:14;;;;;;;1.90;0.47;;;;;;;19.44;40.75;99696.34;5031363;28;20093;-85
2021/05/21 08:27:43;;;;;;;4.80;0.47;;;;;;;19.61;40.82;99696.13;5037508;28;20045;-82
2021/05/21 08:30:10;;;;;;;1.77;0.47;;;;;;;19.67;40.27;99693.09;5048092;28;21242;-87
2021/05/21 08:32:36;;;;;;;1.60;0.60;;;;;;;19.71;40.13;99685.81;5048187;28;20106;-84
2021/05/21 08:35:05;;;;;;;1.92;0.75;;;;;;;19.67;40.07;99693.09;5026960;28;20049;-82
2021/05/21 08:37:36;;;;;;;2.03;0.75;;;;;;;19.66;39.43;99682.59;5023049;28;20140;-85
2021/05/21 08:40:05;;;;;;;4.88;0.88;;;;;;;19.70;39.67;99676.13;5035928;28;20037;-84
2021/05/21 08:42:38;;;;;;;2.13;0.80;;;;;;;20.01;39.39;99679.50;5034444;28;20171;-85
2021/05/21 08:45:08;;;;;;;;;;;;;;;20.75;37.60;99671.22;5039287;28;20055;-85
2021/05/21 08:47:37;;;;;;;3.53;0.70;;;;;;;21.92;35.27;99667.59;5028993;28;20470;-83
2021/05/21 08:50:15;;;;;;;1.90;0.90;;;;;;;22.33;34.57;99657.53;5023620;28;20140;-88
2021/05/21 08:52:47;;;;;;;15.48;2.50;;;;;;;22.66;34.20;99658.66;5016619;28;20104;-83
2021/05/21 08:55:16;;;;;;;2.33;0.40;;;;;;;22.93;33.20;99645.03;5005086;28;20064;-84
2021/05/21 08:57:46;;;;;;;3.15;0.60;;;;;;;23.42;32.91;99653.75;5016920;28;20053;-86
2021/05/21 09:00:17;;;;;;;0.82;0.57;;;;;;;24.18;32.02;99653.91;5017627;28;20068;-86
2021/05/21 09:02:43;;;;;;;1.88;0.65;;;;;;;24.42;31.58;99656.41;5026421;28;20133;-84
2021/05/21 09:05:12;;;;;;;1.80;0.57;;;;;;;23.78;31.53;99649.97;5046515;28;20403;-85
2021/05/21 09:07:41;;;;;;;1.55;0.50;;;;;;;23.63;31.66;99637.84;5044643;28;20044;-87
2021/05/21 09:10:32;;;;;;;;;;;;;;;;;;;;;
2021/05/21 09:12:59;;;;;;;5.15;0.47;;;;;;;25.25;30.30;99643.19;5040897;28;20040;-83
2021/05/21 09:15:27;;;;;;;4.63;0.90;;;;;;;25.64;28.86;99634.50;5043830;28;20052;-86
2021/05/21 09:18:08;;;;;;;2.00;0.57;;;;;;;24.92;28.67;99628.22;5020236;28;20060;-87
2021/05/21 09:20:40;;;;;;;1.88;0.30;;;;;;;23.85;31.12;99644.97;5039641;28;20446;-87
2021/05/21 09:23:09;;;;;;;2.47;1.17;;;;;;;23.27;32.29;99642.44;5042063;28;20044;-82
2021/05/21 09:25:53;;;;;;;1.63;0.40;;;;;;;23.83;30.56;99636.25;5034596;28;20049;-88
2021/05/21 09:28:39;;;;;;;2.92;0.70;;;;;;;22.38;32.31;99616.25;4517390;28;14442198;-82
2021/05/21 09:31:18;;;;;;;;;;;;;;;22.44;32.83;99637.13;673026;28;128349458;-84
2021/05/21 09:34:46;;;;;;;;;;;;;;;24.65;29.33;99626.88;1380967;28;140061385;-82
2021/05/21 09:37:24;;;;;;;1.50;0.55;;;;;;;25.74;27.96;99621.97;4328343;28;19846242;-83
2021/05/21 09:40:09;;;;;;;2.38;0.50;;;;;;;26.29;27.19;99622.53;5006360;28;20049;-83
2021/05/21 09:45:21;;;;;;;;;;;;;;;25.32;27.30;99614.06;3882728;28;178433056;-81
2021/05/21 09:50:22;;;;;;;;;;;;;;;;;;;;;
2021/05/21 09:52:54;;;;;;;3.35;0.55;;;;;;;23.95;30.11;99608.53;4934297;28;521688;-86
2021/05/21 09:55:36;;;;;;;1.73;0.70;;;;;;;23.24;30.87;99611.50;4982535;28;20121;-87
2021/05/21 09:58:25;;;;;;;3.40;0.70;;;;;;;22.07;31.56;99599.00;4996622;28;20057;-89
2021/05/21 10:01:16;;;;;;;2.50;0.70;;;;;;;21.21;32.52;99601.56;4995401;28;20061;-88
2021/05/21 10:06:05;;;;;;;;;;;;;;;19.85;33.49;99623.03;3810595;28;175874895;-83
2021/05/21 10:08:39;;;;;;;0.75;0.50;;;;;;;19.16;34.16;99635.19;4933874;28;19931;-83
2021/05/21 10:11:07;;;;;;;2.45;0.70;;;;;;;18.69;35.48;99625.59;4921659;28;20083;-86
2021/05/21 10:13:36;;;;;;;3.85;0.43;;;;;;;19.81;33.85;99641.78;4959768;28;20078;-85
2021/05/21 10:16:06;;;;;;;1.52;0.50;;;;;;;19.98;33.06;99634.56;4943830;28;20130;-88
2021/05/21 10:18:35;;;;;;;2.00;0.63;;;;;;;19.82;32.75;99622.25;4959461;28;20053;-88
2021/05/21 10:21:06;;;;;;;2.60;0.80;;;;;;;19.95;32.81;99632.13;4985957;28;20104;-86
2021/05/21 10:23:47;;;;;;;3.72;0.90;;;;;;;19.46;32.34;99615.66;4983189;28;20061;-89
2021/05/21 10:26:33;;;;;;;2.47;0.50;;;;;;;19.60;33.15;99622.75;4945879;28;20114;-85
2021/05/21 10:29:08;;;;;;;2.42;0.45;;;;;;;20.37;31.49;99624.94;4977363;28;20509;-85
2021/05/21 10:31:44;;;;;;;3.10;0.88;;;;;;;20.85;30.56;99615.59;4981119;28;20090;-86
2021/05/21 10:34:23;;;;;;;5.30;0.80;;;;;;;20.82;30.92;99617.50;4981370;28;20092;-84
2021/05/21 10:36:50;;;;;;;4.70;1.05;;;;;;;20.19;31.91;99636.78;4981324;28;20141;-86
2021/05/21 10:39:25;;;;;;;1.85;0.50;;;;;;;19.34;33.22;99635.00;4952135;28;20063;-87
2021/05/21 10:41:57;;;;;;;1.48;0.70;;;;;;;18.74;34.02;99631.47;4928701;28;20075;-89
2021/05/21 10:44:39;;;;;;;1.95;0.52;;;;;;;18.38;34.66;99642.44;4943218;28;20492;-89
2021/05/21 10:47:16;;;;;;;1.48;0.55;;;;;;;18.02;34.26;99642.66;4956301;28;20133;-87
2021/05/21 10:50:07;;;;;;;4.07;1.00;;;;;;;17.89;35.57;99627.53;4954855;28;20054;-85
2021/05/21 10:53:06;;;;;;;1.38;0.50;;;;;;;18.11;36.15;99640.44;4954375;28;20066;-85
2021/05/21 10:55:51;;;;;;;0.43;0.25;;;;;;;18.34;36.16;99637.31;4954354;28;20255;-89
2021/05/21 10:58:34;;;;;;;1.17;0.30;;;;;;;19.30;34.76;99628.19;4942064;28;22574;-84
2021/05/21 11:01:29;;;;;;;2.33;0.60;;;;;;;20.01;33.10;99631.69;4955871;28;20043;-88
2021/05/21 11:04:07;;;;;;;1.13;0.50;;;;;;;20.78;31.32;99607.16;4942958;28;20108;-85
2021/05/21 11:06:43;;;;;;;2.53;0.93;;;;;;;20.45;32.07;99611.97;4926563;28;20062;-88
2021/05/21 11:09:17;;;;;;;7.03;1.00;;;;;;;19.88;32.90;99625.47;4944963;28;20112;-86
2021/05/21 11:12:09;;;;;;;;;;;;;;;19.15;34.43;99632.59;4934923;28;20552;-86
2021/05/21 11:14:39;;;;;;;1.85;0.40;;;;;;;18.90;35.18;99635.91;4963465;28;19941;-85
2021/05/21 11:17:16;;;;;;;1.02;0.50;;;;;;;18.46;36.31;99643.72;4944196;28;20074;-88
2021/05/21 11:19:57;;;;;;;1.85;0.47;;;;;;;18.14;36.70;99635.81;4946530;28;20046;-88
2021/05/21 11:22:27;;;;;;;1.45;0.68;;;;;;;19.32;35.40;99637.75;4949145;28;20169;-87
2021/05/21 11:25:06;;;;;;;4.03;0.60;;;;;;;21.29;31.74;99647.09;4941705;28;20114;-86
2021/05/21 11:30:22;;;;;;;4.90;1.40;;;;;;;20.79;34.46;99648.78;4957752;28;20125;-86
2021/05/21 11:32:59;;;;;;;;;;;;;;;;;;;;;
2021/05/21 11:35:27;;;;;;;9.98;1.60;;;;;;;19.36;39.23;99674.69;4930047;28;20061;-89
2021/05/21 11:37:59;;;;;;;5.05;1.50;;;;;;;18.81;40.85;99663.78;4932561;28;20053;-84
2021/05/21 11:40:26;;;;;;;7.05;2.05;;;;;;;18.24;42.69;99662.63;4951131;28;20090;-86
2021/05/21 11:42:55;;;;;;;3.60;1.20;;;;;;;18.23;43.28;99662.72;4955569;28;20055;-84
2021/05/21 11:45:26;;;;;;;4.22;1.52;;;;;;;19.77;40.68;99660.66;4913298;28;307532;-77
2021/05/21 11:47:55;;;;;;;4.10;1.30;;;;;;;21.06;38.58;99656.69;4946677;28;93311;-80
2021/05/21 11:50:29;;;;;;;6.25;3.20;;;;;;;21.98;36.80;99668.00;4937444;28;20044;-79
2021/05/21 11:53:09;;;;;;;8.02;4.50;;;;;;;22.19;36.51;99658.53;4910595;28;20236;-82
2021/05/21 11:55:35;;;;;;;26.73;16.60;;;;;;;22.01;36.63;99648.28;4935934;28;96243;-81
2021/05/21 11:58:01;;;;;;;10.43;4.00;;;;;;;22.06;36.23;99639.94;4936830;28;20042;-78
2021/05/21 12:00:28;;;;;;;15.25;6.80;;;;;;;22.96;34.88;99639.47;4947094;28;20165;-77